Current Conditions

Updated: 29-May-2015 5:03 PM  
Summary / Temperature Wind Rain






Feels like: 96°F

1-hour difference
2.0°F 2.0°F warmer than last hour.

24-hour difference
5.3°F5.3°F warmer than yesterday at this time.

  Today Yesterday
High: 98.9°F
4:46 PM
93.6°F
4:26 PM
Low: 59.5°F
6:05 AM
55.9°F
5:39 AM
Wind from S S
0.4
Gust:  1.0 mph
0 Beaufort - Calm

Today: 6.0 - 2:13 PM
Month: 11.0 mph - May 5
Rain Today: 0.00 in
Current Rate (/hr): 0.00 in
Max Rate (/hr):
Rain Yesterday: 0.00 in
Storm Rain: 0.00 in
This Month: 0.44 in
Season Total: 4.68 in
Last Rain Event: 6 days ago
Humidity / Barometer Sun / Moon
Humidity: 24 Increased 1.0% in the last hour.
Dew Point: 55.4°F Increased 2.7°F in the last hour.
Barometer: 29.765 inHg  
Baro Trend: Falling slowly
Sunrise: 5:41 AM
Sunset: 8:05 PM
Moonrise: 4:29 PM
Moonset: 3:54 AM
Sky Conditions UV Index
Sky: Clear
Visibility: 10 miles
Clouds: None
KPTV - 4:55 PM PDT
Current: 4.0  Moderate 
Friday: 9.3  Very High 
Saturday: 10.1  Very High 
Air Quality Fire Danger
PM 2.5 Good
4:00 PM PDT
Current: 90  Very High 

Local Alerts Local Forecast
Local NWS Alerts
Tonight

Mostly
Clear
Low 57
Sat

Mostly
Sunny
High 99
Sat night

Clear

Low 57
Sun

Sunny

High 97
Sun night

Mostly
Clear
Low 55
Mon

Mostly
Sunny
High 88
Mon night

Mostly
Clear
Low 54

Local Radar Local Satellite Neighborhood Cam Sky Cam
Local Radar Local Satellite Neighborhood Cam Sky Cam


Nearby METAR Reports

KPTV - Porterville, California, USA
Distance from station: SSW 4mi, 7km
Updated: Fri, 29-May-2015 4:55pm PDT
Clear
Clear
 Wind from WNW
Wind: WNW 9 mph , 15 km/h
Temperature: 93°F , 34°C
Dew Point: 46°F , 8°C
Humidity: 20%
Barometer: 29.83 inHg , 1010.2 hPa
Clouds: Clear
Visibility: 10 miles , 16 km
2015/05/29 23:55 KPTV 292355Z AUTO 30008KT 10SM CLR 34/08 A2983 RMK AO1 10340 20270 57020
KVIS - Visalia, California, USA
Distance from station: NW 27mi, 43km
Updated: Fri, 29-May-2015 4:55pm PDT
Clear
Clear
 Wind from N
Wind: N 8 mph , 13 km/h
Temperature: 95°F , 35°C
Dew Point: 48°F , 9°C
Humidity: 20%
Barometer: 29.81 inHg , 1009.5 hPa
Clouds: Clear
Visibility: 10 miles , 16 km
2015/05/29 23:55 KVIS 292355Z AUTO 36007KT 10SM CLR 35/09 A2981 RMK AO1 10350 20260 57024

Metar display script from Saratoga-Weather.org



Visitor Map